Time;durP1;ratioP1;P1;durP2;ratioP2;P2;SDS_P1;SDS_P2;PMS_P1;PMS_P2;Temp;Humidity;BMP_temperature;BMP_pressure;BME280_temperature;BME280_humidity;BME280_pressure;Samples;Min_cycle;Max_cycle;Signal;HPM_P1;HPM_P2
2023/12/05 00:01:06;;;;;;;18.53;11.70;;;;;;;-3.77;100.00;97324.34;6253337;28;20751;-45
2023/12/05 00:04:08;;;;;;;15.40;10.40;;;;;;;-3.64;100.00;97329.91;6249697;28;20740;-45
2023/12/05 00:07:11;;;;;;;17.57;11.87;;;;;;;-3.59;100.00;97326.00;6247035;28;20200;-45
2023/12/05 00:10:14;;;;;;;15.90;10.93;;;;;;;-3.63;100.00;97318.50;6244097;28;20277;-47
2023/12/05 00:13:16;;;;;;;17.50;11.40;;;;;;;-3.50;100.00;97331.03;6252347;28;20191;-47
2023/12/05 00:16:18;;;;;;;13.53;9.57;;;;;;;-3.63;100.00;97321.09;6246392;28;20204;-45
2023/12/05 00:19:20;;;;;;;13.80;9.50;;;;;;;-3.62;100.00;97329.72;6252308;28;20581;-44
2023/12/05 00:22:25;;;;;;;12.40;9.03;;;;;;;-3.78;100.00;97295.88;6252273;28;20208;-46
2023/12/05 00:25:27;;;;;;;15.67;10.60;;;;;;;-3.81;100.00;97290.97;6256372;28;20200;-46
2023/12/05 00:28:30;;;;;;;15.70;11.27;;;;;;;-3.65;100.00;97311.81;6255937;28;20203;-47
2023/12/05 00:31:32;;;;;;;15.43;10.60;;;;;;;-3.66;100.00;97311.00;6252038;28;20195;-44
2023/12/05 00:34:34;;;;;;;18.53;11.80;;;;;;;-3.66;100.00;97315.41;6255017;28;20187;-45
2023/12/05 00:37:36;;;;;;;18.20;12.43;;;;;;;-3.57;100.00;97303.22;6260648;28;20794;-45
2023/12/05 00:40:38;;;;;;;20.30;12.30;;;;;;;-3.47;100.00;97296.06;6262852;28;20546;-45
2023/12/05 00:43:40;;;;;;;17.03;11.63;;;;;;;-3.49;100.00;97298.81;6261323;28;20211;-45
2023/12/05 00:46:42;;;;;;;19.33;13.37;;;;;;;-3.45;100.00;97297.53;6262955;28;20211;-44
2023/12/05 00:49:45;;;;;;;19.37;13.30;;;;;;;-3.41;100.00;97295.38;6260290;28;20200;-50
2023/12/05 00:52:47;;;;;;;20.00;13.20;;;;;;;-3.40;100.00;97290.03;6264696;28;20192;-48
2023/12/05 00:55:49;;;;;;;18.50;13.40;;;;;;;-3.39;100.00;97296.88;6254570;28;20238;-44
2023/12/05 00:58:51;;;;;;;18.83;12.33;;;;;;;-3.38;100.00;97295.88;6249804;28;20202;-47
2023/12/05 01:01:53;;;;;;;17.30;13.10;;;;;;;-3.38;100.00;97298.50;6256107;28;20194;-44
2023/12/05 01:04:55;;;;;;;21.40;14.13;;;;;;;-3.35;100.00;97306.94;6254465;28;20208;-44
2023/12/05 01:07:58;;;;;;;17.03;12.43;;;;;;;-3.34;100.00;97308.59;6253538;28;20219;-44
2023/12/05 01:11:00;;;;;;;20.17;14.40;;;;;;;-3.22;100.00;97312.47;6244573;28;20199;-45
2023/12/05 01:14:02;;;;;;;21.00;13.90;;;;;;;-3.48;100.00;97282.22;6257647;28;20565;-45
2023/12/05 01:17:04;;;;;;;23.50;15.27;;;;;;;-3.31;100.00;97303.03;6256998;28;20706;-45
2023/12/05 01:20:08;;;;;;;22.13;14.07;;;;;;;-3.38;100.00;97288.06;6257850;28;20203;-44
2023/12/05 01:23:10;;;;;;;22.17;14.90;;;;;;;-3.23;100.00;97310.84;6258879;28;20214;-45
2023/12/05 01:26:12;;;;;;;23.80;15.40;;;;;;;-3.12;100.00;97313.13;6245903;28;20191;-45
2023/12/05 01:29:15;;;;;;;19.73;13.83;;;;;;;-3.24;100.00;97317.06;6256859;28;20549;-46
2023/12/05 01:32:17;;;;;;;22.37;13.83;;;;;;;-3.26;100.00;97316.38;6248634;28;20227;-44
2023/12/05 01:35:19;;;;;;;19.97;13.00;;;;;;;-3.25;100.00;97316.25;6254748;28;20702;-45
2023/12/05 01:38:21;;;;;;;20.97;13.83;;;;;;;-3.22;100.00;97312.47;6250813;28;20200;-45
2023/12/05 01:41:23;;;;;;;23.30;14.77;;;;;;;-3.24;100.00;97314.44;6248853;28;20196;-45
2023/12/05 01:44:25;;;;;;;22.83;14.87;;;;;;;-3.24;100.00;97319.66;6252592;28;20202;-45
2023/12/05 01:47:28;;;;;;;24.30;15.93;;;;;;;-3.24;100.00;97312.66;6252647;28;20203;-49
2023/12/05 01:50:32;;;;;;;22.13;14.83;;;;;;;-3.40;100.00;97278.78;6255857;28;20287;-45
2023/12/05 01:53:39;;;;;;;22.87;15.30;;;;;;;-3.23;100.00;97301.25;6252236;28;20195;-47
2023/12/05 01:56:41;;;;;;;20.50;13.90;;;;;;;-3.23;100.00;97301.25;6253450;28;20204;-46
2023/12/05 01:59:43;;;;;;;20.67;13.63;;;;;;;-3.23;100.00;97292.63;6252055;28;20295;-47
2023/12/05 02:02:47;;;;;;;21.10;14.73;;;;;;;-3.24;100.00;97285.78;6253739;28;20211;-45
2023/12/05 02:05:49;;;;;;;23.97;14.93;;;;;;;-3.24;100.00;97291.81;6252965;28;20191;-45
2023/12/05 02:08:53;;;;;;;21.07;13.63;;;;;;;-3.24;100.00;97289.22;6251341;28;20845;-47
2023/12/05 02:11:55;;;;;;;19.90;15.30;;;;;;;-3.20;100.00;97277.50;6260241;28;20196;-46
2023/12/05 02:14:58;;;;;;;22.97;15.23;;;;;;;-3.28;100.00;97271.47;6229048;28;20194;-47
2023/12/05 02:18:20;;;;;;;17.47;11.97;;;;;;;-3.24;100.00;97281.41;6247688;28;20292;-45
2023/12/05 02:21:30;;;;;;;22.20;14.20;;;;;;;-3.18;100.00;97285.13;6246247;28;20203;-45
2023/12/05 02:24:52;;;;;;;21.17;14.50;;;;;;;-3.22;100.00;97287.25;6264506;28;20200;-47
2023/12/05 02:27:55;;;;;;;18.67;13.93;;;;;;;-3.25;100.00;97279.78;6245870;28;20196;-45
2023/12/05 02:30:58;;;;;;;18.00;12.90;;;;;;;-3.24;100.00;97294.41;6254832;28;20204;-45
2023/12/05 02:34:00;;;;;;;20.03;12.80;;;;;;;-3.23;100.00;97287.41;6256544;28;20236;-45
2023/12/05 02:37:34;;;;;;;18.90;13.00;;;;;;;-3.21;100.00;97290.66;6254793;28;20638;-45
2023/12/05 02:40:46;;;;;;;18.00;12.50;;;;;;;-3.21;100.00;97281.03;6242195;28;20189;-46
2023/12/05 02:43:56;;;;;;;17.00;11.97;;;;;;;-3.29;100.00;97278.47;6260082;28;20208;-47
2023/12/05 02:46:59;;;;;;;17.83;12.60;;;;;;;-3.19;100.00;97286.13;6260500;28;20191;-45
2023/12/05 02:50:01;;;;;;;19.43;13.13;;;;;;;-3.20;100.00;97287.91;6260538;28;20203;-44
2023/12/05 02:53:03;;;;;;;16.90;12.17;;;;;;;-3.20;100.00;97285.31;6250119;28;20195;-45
2023/12/05 02:56:07;;;;;;;17.27;12.57;;;;;;;-3.20;100.00;97280.09;6247604;28;20227;-45
2023/12/05 02:59:09;;;;;;;18.07;11.80;;;;;;;-3.19;100.00;97278.31;6245277;28;20199;-47
2023/12/05 03:02:11;;;;;;;17.07;11.67;;;;;;;-3.19;100.00;97276.50;6252641;28;20262;-45
2023/12/05 03:05:17;;;;;;;17.57;12.00;;;;;;;-3.17;100.00;97269.31;6249308;28;20258;-45
2023/12/05 03:08:19;;;;;;;17.17;12.47;;;;;;;-3.17;100.00;97271.94;6251254;28;20238;-45
2023/12/05 03:11:21;;;;;;;16.47;11.63;;;;;;;-3.16;100.00;97262.31;6253588;28;20207;-46
2023/12/05 03:14:23;;;;;;;20.27;12.73;;;;;;;-3.19;100.00;97260.06;6255312;28;20275;-44
2023/12/05 03:17:25;;;;;;;19.03;12.90;;;;;;;-3.21;100.00;97262.00;6254482;28;20184;-45
2023/12/05 03:20:27;;;;;;;22.73;13.47;;;;;;;-3.22;100.00;97271.63;6259148;28;20228;-45
2023/12/05 03:23:30;;;;;;;21.20;14.17;;;;;;;-3.23;100.00;97262.19;6252594;28;20280;-45
2023/12/05 03:26:33;;;;;;;18.43;13.07;;;;;;;-3.22;100.00;97266.41;6252102;28;20367;-45
2023/12/05 03:29:35;;;;;;;21.53;13.90;;;;;;;-3.35;100.00;97242.66;6249159;28;20200;-45
2023/12/05 03:32:37;;;;;;;20.20;14.23;;;;;;;-3.20;100.00;97264.47;6250870;28;20231;-44
2023/12/05 03:35:39;;;;;;;25.50;15.50;;;;;;;-3.22;100.00;97271.63;6257722;28;20179;-45
2023/12/05 03:38:43;;;;;;;20.77;14.97;;;;;;;-3.22;100.00;97278.63;6252479;28;20729;-45
2023/12/05 03:41:46;;;;;;;19.17;13.23;;;;;;;-3.22;100.00;97281.22;6245564;28;20234;-46
2023/12/05 03:44:48;;;;;;;19.50;13.43;;;;;;;-3.41;100.00;97264.97;6249864;28;20873;-45
2023/12/05 03:47:50;;;;;;;19.03;13.30;;;;;;;-3.20;100.00;97292.28;6251601;28;20203;-44
2023/12/05 03:50:52;;;;;;;20.40;13.73;;;;;;;-3.20;100.00;97297.50;6252877;28;20241;-45
2023/12/05 03:53:54;;;;;;;18.37;12.63;;;;;;;-3.24;100.00;97289.22;6250826;28;20195;-46
2023/12/05 03:56:57;;;;;;;21.50;14.27;;;;;;;-3.19;100.00;97296.53;6241716;28;20195;-45
2023/12/05 03:59:59;;;;;;;16.93;12.33;;;;;;;-3.18;100.00;97298.16;6252071;28;20199;-45
2023/12/05 04:03:01;;;;;;;17.10;12.33;;;;;;;-3.19;100.00;97293.94;6252656;28;20204;-46
2023/12/05 04:06:03;;;;;;;19.40;13.23;;;;;;;-3.18;100.00;97295.56;6251816;28;20290;-44
2023/12/05 04:09:05;;;;;;;17.37;12.90;;;;;;;-3.17;100.00;97290.16;6250294;28;20187;-44
2023/12/05 04:12:07;;;;;;;19.60;13.07;;;;;;;-3.15;100.00;97295.22;6249363;28;20667;-48
2023/12/05 04:15:10;;;;;;;17.83;12.57;;;;;;;-3.16;100.00;97283.97;6250580;28;20257;-49
2023/12/05 04:18:12;;;;;;;24.83;15.73;;;;;;;-3.12;100.00;97287.06;6245555;28;20195;-46
2023/12/05 04:21:14;;;;;;;20.47;14.83;;;;;;;-3.14;100.00;97289.03;6236415;28;20884;-45
2023/12/05 04:24:16;;;;;;;23.90;15.53;;;;;;;-3.14;100.00;97297.66;6249898;28;20212;-45
2023/12/05 04:27:18;;;;;;;21.20;14.33;;;;;;;-3.33;100.00;97258.94;6255270;28;20593;-46
2023/12/05 04:30:21;;;;;;;21.43;14.07;;;;;;;-3.14;100.00;97291.63;6254300;28;20191;-50
2023/12/05 04:33:24;;;;;;;22.47;15.63;;;;;;;-3.13;100.00;97299.28;6254192;28;20763;-50
2023/12/05 04:36:26;;;;;;;28.17;17.07;;;;;;;-3.09;100.00;97298.97;6246371;28;20199;-47
2023/12/05 04:39:28;;;;;;;25.47;17.00;;;;;;;-3.08;100.00;97301.41;6242888;28;20208;-50
2023/12/05 04:42:31;;;;;;;24.47;15.73;;;;;;;-3.06;100.00;97294.22;6257534;28;20231;-49
2023/12/05 04:45:33;;;;;;;22.17;16.13;;;;;;;-3.09;100.00;97289.34;6252284;28;20215;-44
2023/12/05 04:48:35;;;;;;;27.40;16.67;;;;;;;-3.18;100.00;97279.91;6259882;28;20195;-47
2023/12/05 04:51:37;;;;;;;23.93;16.70;;;;;;;-3.06;100.00;97298.63;6249332;28;20195;-45
2023/12/05 04:54:41;;;;;;;27.47;18.30;;;;;;;-3.00;100.00;97293.56;6251975;28;20190;-44
2023/12/05 04:57:43;;;;;;;27.77;17.80;;;;;;;-2.96;100.00;97292.25;6250711;28;20191;-47
2023/12/05 05:00:45;;;;;;;29.00;19.37;;;;;;;-3.01;100.00;97294.53;6245736;28;20219;-45
2023/12/05 05:03:47;;;;;;;29.70;19.97;;;;;;;-3.07;100.00;97284.78;6242897;28;20712;-44
2023/12/05 05:06:50;;;;;;;34.37;20.80;;;;;;;-3.08;100.00;97282.34;6253080;28;20647;-44
2023/12/05 05:09:52;;;;;;;32.90;21.70;;;;;;;-3.04;100.00;97294.88;6252565;28;20601;-44
2023/12/05 05:12:54;;;;;;;32.53;21.20;;;;;;;-3.01;100.00;97286.72;6257082;28;20350;-45
2023/12/05 05:15:56;;;;;;;35.40;23.13;;;;;;;-3.00;100.00;97285.75;6252114;28;20734;-46
2023/12/05 05:18:59;;;;;;;35.90;22.77;;;;;;;-2.95;100.00;97282.66;6244004;28;20199;-45
2023/12/05 05:22:01;;;;;;;36.57;22.40;;;;;;;-3.01;100.00;97285.91;6256292;28;20297;-45
2023/12/05 05:25:04;;;;;;;32.13;21.03;;;;;;;-3.04;100.00;97283.66;6249376;28;20345;-47
2023/12/05 05:28:09;;;;;;;36.07;23.40;;;;;;;-3.02;100.00;97286.88;6261525;28;20270;-44
2023/12/05 05:31:11;;;;;;;31.23;20.70;;;;;;;-3.02;100.00;97287.69;6249187;28;20714;-44
2023/12/05 05:34:13;;;;;;;41.50;21.77;;;;;;;-3.00;100.00;97298.78;6259868;28;20449;-45
2023/12/05 05:37:17;;;;;;;38.83;23.23;;;;;;;-2.99;100.00;97299.59;6253109;28;20697;-45
2023/12/05 05:40:21;;;;;;;35.07;22.37;;;;;;;-3.17;100.00;97274.53;6248561;28;20196;-46
2023/12/05 05:43:23;;;;;;;35.70;21.90;;;;;;;-3.04;100.00;97300.09;6251253;28;20216;-44
2023/12/05 05:46:25;;;;;;;37.23;23.57;;;;;;;-3.21;100.00;97269.81;6253867;28;20199;-44
2023/12/05 05:49:29;;;;;;;39.47;23.93;;;;;;;-3.03;100.00;97300.91;6244971;28;20207;-44
2023/12/05 05:52:31;;;;;;;39.60;25.60;;;;;;;-3.04;100.00;97305.31;6256132;28;20848;-45
2023/12/05 05:55:33;;;;;;;43.50;25.97;;;;;;;-3.02;100.00;97310.34;6254770;28;20192;-44
2023/12/05 05:58:35;;;;;;;42.43;24.50;;;;;;;-3.02;100.00;97334.59;6241631;28;20756;-47
2023/12/05 06:01:37;;;;;;;39.60;24.17;;;;;;;-3.00;100.00;97337.88;6255115;28;20222;-46
2023/12/05 06:04:43;;;;;;;40.47;25.13;;;;;;;-3.20;100.00;97310.50;6257688;28;20215;-45
2023/12/05 06:07:45;;;;;;;37.40;24.23;;;;;;;-3.06;100.00;97328.09;6253095;28;20200;-44
2023/12/05 06:10:47;;;;;;;38.50;23.90;;;;;;;-3.05;100.00;97328.91;6251393;28;20196;-45
2023/12/05 06:13:49;;;;;;;34.03;22.47;;;;;;;-3.23;100.00;97305.66;6249285;28;20188;-47
2023/12/05 06:16:51;;;;;;;40.50;24.93;;;;;;;-3.28;100.00;97297.50;6249351;28;20890;-44
2023/12/05 06:19:53;;;;;;;38.33;25.40;;;;;;;-3.06;100.00;97337.69;6252104;28;20292;-44
2023/12/05 06:22:56;;;;;;;34.90;22.83;;;;;;;-3.08;100.00;97337.06;6249891;28;20200;-46
2023/12/05 06:25:58;;;;;;;42.13;26.43;;;;;;;-2.84;100.00;97344.84;6237581;28;20223;-44
2023/12/05 06:29:05;;;;;;;38.07;23.97;;;;;;;-3.03;100.00;97348.63;6248966;28;20326;-46
2023/12/05 06:32:08;;;;;;;38.47;24.83;;;;;;;-3.06;100.00;97348.13;6248696;28;20606;-45
2023/12/05 06:35:10;;;;;;;38.70;23.17;;;;;;;-3.09;100.00;97341.47;6253625;28;20196;-46
2023/12/05 06:38:14;;;;;;;43.80;24.70;;;;;;;-3.17;100.00;97333.63;6253629;28;20203;-46
2023/12/05 06:41:16;;;;;;;35.20;22.47;;;;;;;-3.09;100.00;97341.47;6249491;28;20568;-45
2023/12/05 06:44:18;;;;;;;44.53;26.70;;;;;;;-3.06;100.00;97345.50;6250920;28;20686;-46
2023/12/05 06:47:20;;;;;;;43.43;25.47;;;;;;;-3.06;100.00;97341.13;6249642;28;20686;-45
2023/12/05 06:50:23;;;;;;;41.67;26.27;;;;;;;-3.03;100.00;97345.19;6265172;28;20274;-45
2023/12/05 06:53:25;;;;;;;41.13;26.33;;;;;;;-3.26;100.00;97316.38;6256532;28;20651;-46
2023/12/05 06:56:27;;;;;;;39.67;25.60;;;;;;;-3.29;100.00;97320.16;6260668;28;20262;-46
2023/12/05 06:59:29;;;;;;;39.70;25.90;;;;;;;-3.06;100.00;97356.75;6249888;28;20196;-48
2023/12/05 07:02:32;;;;;;;39.73;25.97;;;;;;;-3.04;100.00;97352.19;6253022;28;20235;-47
2023/12/05 07:05:34;;;;;;;45.00;27.97;;;;;;;-3.00;100.00;97358.72;6253136;28;20215;-48
2023/12/05 07:08:37;;;;;;;40.57;26.80;;;;;;;-3.03;100.00;97364.25;6258216;28;20564;-45
2023/12/05 07:11:39;;;;;;;42.23;26.23;;;;;;;-2.95;100.00;97364.25;6257968;28;20738;-46
2023/12/05 07:14:42;;;;;;;40.77;26.17;;;;;;;-3.00;100.00;97368.34;6257642;28;20203;-46
2023/12/05 07:17:44;;;;;;;41.53;25.57;;;;;;;-2.99;100.00;97375.16;6255249;28;20676;-46
2023/12/05 07:20:47;;;;;;;41.90;26.63;;;;;;;-2.95;100.00;97368.66;6243854;28;20204;-46
2023/12/05 07:23:49;;;;;;;41.27;26.70;;;;;;;-2.99;100.00;97378.59;6259120;28;20214;-46
2023/12/05 07:27:01;;;;;;;39.10;24.47;;;;;;;-2.97;100.00;97384.44;6258896;28;20200;-47
2023/12/05 07:30:07;;;;;;;38.73;24.17;;;;;;;-2.95;100.00;97373.88;6258278;28;20204;-45
2023/12/05 07:33:10;;;;;;;39.63;25.53;;;;;;;-2.91;100.00;97373.34;6255890;28;20239;-45
2023/12/05 07:36:13;;;;;;;38.73;25.10;;;;;;;-2.92;100.00;97368.31;6249620;28;20281;-45
2023/12/05 07:39:15;;;;;;;44.47;26.83;;;;;;;-2.84;100.00;97363.09;6249087;28;20192;-46
2023/12/05 07:42:17;;;;;;;39.33;25.23;;;;;;;-2.91;100.00;97373.34;6251633;28;20191;-46
2023/12/05 07:45:20;;;;;;;39.93;25.30;;;;;;;-2.89;100.00;97370.59;6251299;28;20738;-45
2023/12/05 07:48:22;;;;;;;37.53;22.93;;;;;;;-2.86;100.00;97370.25;6255927;28;20340;-45
2023/12/05 07:51:24;;;;;;;41.17;24.50;;;;;;;-2.79;100.00;97378.25;6235386;28;20286;-46
2023/12/05 07:54:27;;;;;;;35.87;21.90;;;;;;;-2.75;100.00;97380.34;6252606;28;20215;-44
2023/12/05 07:57:30;;;;;;;40.47;24.03;;;;;;;-2.88;100.00;97362.59;6255355;28;20195;-45
2023/12/05 08:00:34;;;;;;;36.73;23.17;;;;;;;-2.72;100.00;97382.63;6237640;28;20198;-46
2023/12/05 08:03:36;;;;;;;34.53;22.47;;;;;;;-2.67;100.00;97389.94;6251903;28;20573;-45
2023/12/05 08:06:38;;;;;;;32.40;21.97;;;;;;;-2.71;100.00;97373.84;6253682;28;20194;-46
2023/12/05 08:09:41;;;;;;;39.90;24.00;;;;;;;-2.55;100.00;97391.25;6254336;28;20648;-45
2023/12/05 08:12:43;;;;;;;36.17;22.97;;;;;;;-2.53;100.00;97393.66;6258882;28;20626;-44
2023/12/05 08:15:45;;;;;;;37.50;24.33;;;;;;;-2.47;100.00;97395.59;6247319;28;20257;-44
2023/12/05 08:18:47;;;;;;;33.97;23.20;;;;;;;-2.41;100.00;97395.78;6248875;28;20695;-45
2023/12/05 08:21:50;;;;;;;35.83;22.90;;;;;;;-2.38;100.00;97400.63;6250510;28;20196;-44
2023/12/05 08:24:52;;;;;;;34.90;22.93;;;;;;;-2.38;100.00;97395.41;6254460;28;20356;-44
2023/12/05 08:27:54;;;;;;;38.00;24.33;;;;;;;-2.37;100.00;97404.88;6251435;28;20847;-45
2023/12/05 08:30:56;;;;;;;37.10;24.50;;;;;;;-2.39;100.00;97406.84;6253174;28;20675;-46
2023/12/05 08:33:58;;;;;;;36.60;22.80;;;;;;;-2.39;100.00;97404.22;6247830;28;20242;-45
2023/12/05 08:37:01;;;;;;;33.63;21.67;;;;;;;-2.41;100.00;97400.19;6247655;28;20565;-46
2023/12/05 08:40:03;;;;;;;39.77;24.27;;;;;;;-2.34;100.00;97409.75;6246548;28;20199;-44
2023/12/05 08:43:05;;;;;;;37.00;23.00;;;;;;;-2.36;100.00;97410.94;6245780;28;20207;-47
2023/12/05 08:46:07;;;;;;;33.93;21.00;;;;;;;-2.33;100.00;97407.97;6226958;28;20777;-46
2023/12/05 08:49:11;;;;;;;36.60;23.93;;;;;;;-2.26;100.00;97413.34;6244264;28;20350;-45
2023/12/05 08:52:13;;;;;;;34.70;22.67;;;;;;;-2.23;100.00;97416.41;6248215;28;20608;-45
2023/12/05 08:55:15;;;;;;;33.83;22.60;;;;;;;-2.15;100.00;97418.19;6255858;28;20657;-46
2023/12/05 08:58:17;;;;;;;34.63;22.37;;;;;;;-2.02;100.00;97415.03;6254872;28;20232;-46
2023/12/05 09:01:23;;;;;;;38.33;23.00;;;;;;;-1.93;100.00;97421.84;6247929;28;20199;-45
2023/12/05 09:04:25;;;;;;;33.10;21.67;;;;;;;-1.83;100.00;97419.84;6254346;28;20261;-44
2023/12/05 09:07:27;;;;;;;36.30;22.47;;;;;;;-1.81;100.00;97425.75;6254842;28;20544;-44
2023/12/05 09:10:30;;;;;;;33.37;21.97;;;;;;;-1.83;100.00;97425.88;6256770;28;20280;-46
2023/12/05 09:13:32;;;;;;;34.77;23.07;;;;;;;-1.78;100.00;97427.19;6260894;28;20234;-45
2023/12/05 09:16:34;;;;;;;33.60;22.73;;;;;;;-1.81;100.00;97436.19;6258581;28;20188;-46
2023/12/05 09:19:36;;;;;;;32.40;21.37;;;;;;;-1.75;100.00;97438.09;6254511;28;20647;-46
2023/12/05 09:22:38;;;;;;;34.40;22.60;;;;;;;-1.68;100.00;97438.22;6263226;28;20564;-46
2023/12/05 09:25:41;;;;;;;33.67;22.10;;;;;;;-1.65;100.00;97435.28;6248067;28;20199;-47
2023/12/05 09:28:43;;;;;;;33.33;22.40;;;;;;;-1.62;100.00;97434.97;6263277;28;20192;-47
2023/12/05 09:31:45;;;;;;;32.50;22.07;;;;;;;-1.51;100.00;97433.75;6233705;28;20275;-48
2023/12/05 09:34:47;;;;;;;32.40;21.50;;;;;;;-1.45;100.00;97425.22;6246701;28;20200;-47
2023/12/05 09:37:49;;;;;;;39.27;24.97;;;;;;;-1.51;100.00;97423.31;6247813;28;20846;-48
2023/12/05 09:40:52;;;;;;;32.63;21.80;;;;;;;-1.58;100.00;97416.16;6250464;28;20184;-48
2023/12/05 09:43:54;;;;;;;36.33;23.97;;;;;;;-1.60;100.00;97420.72;6256817;28;20624;-45
2023/12/05 09:46:58;;;;;;;35.60;24.47;;;;;;;-1.65;100.00;97402.16;6259601;28;20571;-48
2023/12/05 09:50:01;;;;;;;34.03;22.43;;;;;;;-1.59;100.00;97400.66;6246774;28;20249;-45
2023/12/05 09:53:09;;;;;;;36.20;23.50;;;;;;;-1.49;100.00;97403.84;6257205;28;20193;-46
2023/12/05 09:56:15;;;;;;;35.27;23.27;;;;;;;-1.39;100.00;97401.03;6255142;28;20833;-48
2023/12/05 09:59:18;;;;;;;36.80;23.33;;;;;;;-1.35;100.00;97395.28;6238736;28;20208;-45
2023/12/05 10:02:23;;;;;;;39.17;24.57;;;;;;;-1.32;100.00;97402.78;6253609;28;20554;-46
2023/12/05 10:05:26;;;;;;;35.83;23.23;;;;;;;-1.31;100.00;97399.19;6258183;28;20219;-46
2023/12/05 10:08:29;;;;;;;36.97;23.53;;;;;;;-1.33;100.00;97402.94;6256452;28;20199;-46
2023/12/05 10:11:31;;;;;;;40.27;25.13;;;;;;;-1.35;100.00;97410.16;6249824;28;20673;-47
2023/12/05 10:14:33;;;;;;;39.73;26.57;;;;;;;-1.81;100.00;97383.97;6246721;28;20614;-47
2023/12/05 10:17:35;;;;;;;39.87;26.13;;;;;;;-1.73;100.00;97399.56;6249390;28;20544;-47
2023/12/05 10:20:38;;;;;;;39.63;26.30;;;;;;;-1.68;100.00;97399.06;6248438;28;20226;-45
2023/12/05 10:23:40;;;;;;;35.33;23.47;;;;;;;-1.66;100.00;97402.34;6252501;28;20196;-47
2023/12/05 10:26:45;;;;;;;39.60;25.63;;;;;;;-1.60;100.00;97402.44;6250908;28;20290;-46
2023/12/05 10:29:47;;;;;;;38.53;25.00;;;;;;;-1.56;100.00;97400.31;6250526;28;20192;-48
2023/12/05 10:32:49;;;;;;;39.30;26.00;;;;;;;-1.52;100.00;97401.59;6255608;28;20232;-46
2023/12/05 10:35:51;;;;;;;41.33;25.97;;;;;;;-1.54;100.00;97407.97;6256915;28;20539;-46
2023/12/05 10:38:53;;;;;;;36.20;24.40;;;;;;;-1.51;100.00;97403.22;6252925;28;20200;-47
2023/12/05 10:41:55;;;;;;;32.87;22.70;;;;;;;-1.48;100.00;97415.94;6250271;28;20575;-46
2023/12/05 10:44:57;;;;;;;39.83;25.00;;;;;;;-1.45;100.00;97396.50;6252067;28;20269;-45
2023/12/05 10:48:00;;;;;;;37.57;23.40;;;;;;;-1.59;100.00;97396.25;6252668;28;20559;-46
2023/12/05 10:51:02;;;;;;;44.47;25.87;;;;;;;-1.74;100.00;97384.09;6247190;28;20195;-45
2023/12/05 10:54:05;;;;;;;38.60;24.67;;;;;;;-1.66;100.00;97392.69;6248715;28;20330;-46
2023/12/05 10:57:09;;;;;;;35.20;22.77;;;;;;;-1.66;100.00;97387.47;6251162;28;20274;-47
2023/12/05 11:00:12;;;;;;;38.83;25.83;;;;;;;-1.62;100.00;97382.72;6256869;28;20594;-45
2023/12/05 11:03:16;;;;;;;39.60;24.30;;;;;;;-1.58;100.00;97377.00;6262565;28;20239;-46
2023/12/05 11:06:18;;;;;;;37.90;24.93;;;;;;;-1.52;100.00;97364.22;6256469;28;20204;-45
2023/12/05 11:09:23;;;;;;;36.00;24.60;;;;;;;-1.48;100.00;97358.47;6254989;28;20288;-46
2023/12/05 11:12:26;;;;;;;39.60;25.63;;;;;;;-1.55;100.00;97354.94;6257212;28;20325;-47
2023/12/05 11:15:34;;;;;;;35.63;24.50;;;;;;;-1.44;100.00;97351.91;6241508;28;20188;-46
2023/12/05 11:18:42;;;;;;;38.53;25.10;;;;;;;-1.44;100.00;97345.88;6256203;28;20231;-47
2023/12/05 11:22:13;;;;;;;41.87;26.17;;;;;;;-1.36;100.00;97345.81;6253113;28;20248;-46
2023/12/05 11:25:16;;;;;;;43.43;26.10;;;;;;;-1.39;100.00;97333.09;6232979;28;20306;-44
2023/12/05 11:28:36;;;;;;;39.43;25.40;;;;;;;-1.25;100.00;97345.41;6257760;28;20191;-44
2023/12/05 11:31:47;;;;;;;40.97;25.93;;;;;;;-1.17;100.00;97334.91;6262525;28;20239;-44
2023/12/05 11:35:10;;;;;;;40.57;24.33;;;;;;;-1.05;100.00;97343.13;6249427;28;20196;-45
2023/12/05 11:38:17;;;;;;;38.23;26.17;;;;;;;-0.99;100.00;97345.00;6249654;28;20609;-44
2023/12/05 11:41:22;;;;;;;40.13;25.90;;;;;;;-0.96;100.00;97343.88;6250946;28;20252;-44
2023/12/05 11:44:24;;;;;;;40.37;24.20;;;;;;;-0.94;100.00;97353.13;6253678;28;20241;-45
2023/12/05 11:47:28;;;;;;;37.50;24.10;;;;;;;-0.89;100.00;97342.16;6251911;28;20748;-44
2023/12/05 11:50:42;;;;;;;36.40;24.73;;;;;;;-0.97;100.00;97348.28;6253246;28;20856;-46
2023/12/05 11:53:44;;;;;;;37.97;24.80;;;;;;;-1.00;100.00;97339.97;6254449;28;20194;-44
2023/12/05 11:56:46;;;;;;;37.20;24.73;;;;;;;-1.12;100.00;97322.09;6254535;28;20206;-44
2023/12/05 11:59:51;;;;;;;36.13;24.03;;;;;;;-1.00;100.00;97339.97;6260255;28;20221;-45
2023/12/05 12:02:58;;;;;;;36.67;23.87;;;;;;;-1.06;100.00;97344.13;6243654;28;20253;-48
2023/12/05 12:06:05;;;;;;;40.07;24.93;;;;;;;-1.06;100.00;97341.50;6251006;28;20335;-41
2023/12/05 12:09:08;;;;;;;36.17;23.37;;;;;;;-1.00;100.00;97337.34;6251371;28;20199;-42
2023/12/05 12:12:10;;;;;;;35.63;24.13;;;;;;;-0.98;100.00;97336.22;6255690;28;20202;-45
2023/12/05 12:15:14;;;;;;;36.83;23.93;;;;;;;-1.05;100.00;97323.00;6244686;28;20652;-42
2023/12/05 12:18:28;;;;;;;41.40;25.07;;;;;;;-1.07;100.00;97343.31;6246869;28;20242;-41
2023/12/05 12:21:44;;;;;;;38.37;24.77;;;;;;;-1.08;100.00;97341.69;6249939;28;20209;-40
2023/12/05 12:24:47;;;;;;;35.87;24.17;;;;;;;-1.12;100.00;97340.41;6250640;28;20658;-40
2023/12/05 12:27:49;;;;;;;37.33;24.33;;;;;;;-1.09;100.00;97336.59;6250551;28;20541;-41
2023/12/05 12:30:51;;;;;;;36.93;24.37;;;;;;;-1.11;100.00;97342.03;6252685;28;20194;-41
2023/12/05 12:33:53;;;;;;;35.93;23.57;;;;;;;-1.10;100.00;97333.19;6260660;28;20905;-40
2023/12/05 12:36:57;;;;;;;35.47;24.27;;;;;;;-1.04;100.00;97336.91;6256037;28;20191;-42
2023/12/05 12:40:05;;;;;;;38.87;25.20;;;;;;;-1.01;100.00;97336.56;6256504;28;20203;-44
2023/12/05 12:43:08;;;;;;;32.77;22.73;;;;;;;-0.97;100.00;97332.59;6248273;28;20199;-43
2023/12/05 12:46:10;;;;;;;39.83;24.53;;;;;;;-0.92;100.00;97329.44;6251549;28;20599;-43
2023/12/05 12:49:14;;;;;;;39.57;26.13;;;;;;;-0.94;100.00;97332.22;6250900;28;20195;-40
2023/12/05 12:52:18;;;;;;;36.17;24.60;;;;;;;-0.92;100.00;97332.06;6250726;28;20203;-41
2023/12/05 12:55:21;;;;;;;39.30;25.87;;;;;;;-0.92;100.00;97327.66;6249814;28;20574;-41
2023/12/05 12:58:34;;;;;;;39.40;24.67;;;;;;;-0.95;100.00;97324.56;6255645;28;20668;-42
2023/12/05 13:01:40;;;;;;;38.27;24.90;;;;;;;-0.97;100.00;97323.94;6266125;28;20405;-42
2023/12/05 13:04:43;;;;;;;34.90;23.03;;;;;;;-0.92;100.00;97326.84;6249492;28;20203;-41
2023/12/05 13:07:50;;;;;;;39.97;25.57;;;;;;;-0.94;100.00;97331.41;6250976;28;20275;-41
2023/12/05 13:10:52;;;;;;;40.73;25.83;;;;;;;-1.00;100.00;97332.94;6248845;28;20675;-41
2023/12/05 13:13:54;;;;;;;42.77;26.10;;;;;;;-1.01;100.00;97333.94;6253361;28;20668;-40
2023/12/05 13:17:07;;;;;;;41.53;27.03;;;;;;;-0.88;100.00;97343.81;6242521;28;20195;-42
2023/12/05 13:20:16;;;;;;;43.60;26.83;;;;;;;-0.98;100.00;97333.59;6257857;28;20193;-44
2023/12/05 13:23:19;;;;;;;41.17;26.17;;;;;;;-1.04;100.00;97334.28;6265019;28;20862;-41
2023/12/05 13:26:22;;;;;;;38.97;24.93;;;;;;;-1.01;100.00;97335.75;6261541;28;20575;-42
2023/12/05 13:29:25;;;;;;;44.27;27.67;;;;;;;-0.96;100.00;97326.38;6268252;28;20715;-41
2023/12/05 13:32:26;;;;;;;40.60;25.33;;;;;;;-0.93;100.00;97323.41;6265081;28;21005;-42
2023/12/05 13:35:29;;;;;;;37.13;24.03;;;;;;;-0.93;100.00;97331.25;6248414;28;20285;-42
2023/12/05 13:38:31;;;;;;;38.87;25.60;;;;;;;-1.74;100.00;97203.94;6249808;28;20192;-40
2023/12/05 13:41:33;;;;;;;38.10;23.97;;;;;;;-0.99;100.00;97334.56;6251341;28;20198;-41
2023/12/05 13:44:39;;;;;;;35.80;23.53;;;;;;;-1.02;100.00;97323.66;6272136;28;20203;-40
2023/12/05 13:47:41;;;;;;;36.47;23.93;;;;;;;-1.03;100.00;97333.31;6256843;28;20216;-41
2023/12/05 13:50:43;;;;;;;35.53;23.27;;;;;;;-1.05;100.00;97330.03;6237715;28;20219;-40
2023/12/05 13:53:45;;;;;;;38.50;25.07;;;;;;;-1.07;100.00;97326.81;6271735;28;20254;-42